Oberpullendorf, Austria
Current Conditions -  °F | °C
As of 10:50 AM on Sunday 21 Dec 2014 (Local Time) from LOWW Reporting Station
Broken Clouds Broken Clouds  
Wind Chill: 35°   Ceiling: 30000
Heat Index: 45°   Visibility: 6mi
Dew Point: 30°   Wind: 29mph
Humidity: 57%   Direction: 300°WNW
Pressure: 30.3"   Gusts: 47mph
Location:  47.5°N, 16.5°E
Report Text: LOWW 210850Z 30025G41KT 9999 FEW030 SCT070 BKN300 07/M01 Q1026 TEMPO 30030G42KT
Loading
Personal Weather Stations






























Interactive Weather Map New forecast layout! Learn more

10-Day Weather Forecast

Advertisements
Track Severe Weather on mobile